Time;durP1;ratioP1;P1;durP2;ratioP2;P2;SDS_P1;SDS_P2;PMS_P1;PMS_P2;Temp;Humidity;BMP_temperature;BMP_pressure;BME280_temperature;BME280_humidity;BME280_pressure;Samples;Min_cycle;Max_cycle;Signal;HPM_P1;HPM_P2
2021/12/24 00:01:02;;;;;;;3.08;1.00;;;25.40;99.90;;;;;;5029512;28;20251;-78
2021/12/24 00:03:36;;;;;;;5.15;1.00;;;25.50;99.90;;;;;;5029121;28;20228;-80
2021/12/24 00:06:08;;;;;;;4.85;1.27;;;25.40;99.90;;;;;;5030175;28;20254;-79
2021/12/24 00:08:40;;;;;;;2.08;0.93;;;25.30;99.90;;;;;;5028867;28;20194;-82
2021/12/24 00:11:13;;;;;;;2.38;0.93;;;25.20;99.90;;;;;;5028689;28;20244;-83
2021/12/24 00:13:47;;;;;;;3.05;1.08;;;25.20;99.90;;;;;;5025205;28;20231;-81
2021/12/24 00:16:23;;;;;;;2.72;1.17;;;25.20;99.90;;;;;;5049614;28;20607;-80
2021/12/24 00:18:59;;;;;;;1.90;1.00;;;25.10;99.90;;;;;;5034022;28;20538;-83
2021/12/24 00:35:32;;;;;;;2.92;1.20;;;24.80;99.90;;;;;;5031651;28;20266;-79
2021/12/24 00:38:05;;;;;;;3.53;1.25;;;24.80;99.90;;;;;;5013881;28;20200;-78
2021/12/24 00:40:37;;;;;;;3.58;1.50;;;24.70;99.90;;;;;;5021456;28;20326;-78
2021/12/24 00:46:37;;;;;;;2.92;1.15;;;24.80;99.90;;;;;;5017939;28;20236;-79
2021/12/24 00:49:08;;;;;;;5.15;1.50;;;24.80;99.90;;;;;;5035852;28;20252;-79
2021/12/24 00:51:55;;;;;;;4.95;1.42;;;24.80;99.90;;;;;;5024434;28;20198;-81
2021/12/24 00:57:13;;;;;;;4.85;1.60;;;24.70;99.90;;;;;;5022151;28;20228;-81
2021/12/24 00:59:43;;;;;;;4.45;1.27;;;24.80;99.90;;;;;;5029900;28;20193;-81
2021/12/24 01:02:16;;;;;;;4.68;1.48;;;24.80;99.90;;;;;;5032395;28;20700;-81
2021/12/24 01:04:47;;;;;;;5.32;1.50;;;24.70;99.90;;;;;;5034161;28;20255;-82
2021/12/24 01:07:18;;;;;;;5.25;1.67;;;24.80;99.90;;;;;;5033671;28;20245;-82
2021/12/24 01:09:49;;;;;;;3.78;1.10;;;24.80;99.90;;;;;;5030690;28;20197;-81
2021/12/24 01:12:19;;;;;;;5.35;1.30;;;24.90;99.90;;;;;;5017898;28;20202;-80
2021/12/24 01:14:50;;;;;;;3.58;1.35;;;25.00;99.90;;;;;;5013136;28;20206;-81
2021/12/24 01:17:32;;;;;;;4.45;1.52;;;25.00;99.90;;;;;;5013317;28;20246;-80
2021/12/24 01:20:09;;;;;;;3.30;1.45;;;25.20;99.90;;;;;;5024011;28;20240;-83
2021/12/24 01:25:30;;;;;;;4.38;1.58;;;25.40;99.90;;;;;;5023144;28;20516;-79
2021/12/24 01:28:25;;;;;;;4.45;1.38;;;25.50;99.90;;;;;;5028682;28;20585;-82
2021/12/24 01:39:23;;;;;;;4.78;1.65;;;25.80;99.90;;;;;;5033454;28;20289;-85
2021/12/24 01:44:41;;;;;;;4.57;1.50;;;26.00;99.90;;;;;;5024554;28;20189;-83
2021/12/24 01:47:13;;;;;;;6.20;1.55;;;26.10;99.90;;;;;;5032824;28;20275;-83
2021/12/24 01:49:46;;;;;;;2.38;1.30;;;26.20;99.90;;;;;;5029230;28;20186;-84
2021/12/24 01:52:17;;;;;;;6.53;1.73;;;26.20;99.90;;;;;;5030678;28;20589;-83
2021/12/24 01:54:48;;;;;;;4.57;1.70;;;26.30;99.90;;;;;;5028989;28;20201;-86
2021/12/24 01:57:19;;;;;;;5.20;1.65;;;26.30;99.90;;;;;;5030336;28;20217;-83
2021/12/24 01:59:49;;;;;;;6.85;1.52;;;26.30;99.90;;;;;;5031414;28;20259;-85
2021/12/24 02:02:20;;;;;;;4.47;1.60;;;26.40;99.90;;;;;;5028420;28;20202;-82
2021/12/24 02:04:52;;;;;;;6.90;1.67;;;26.30;99.90;;;;;;5029901;28;20217;-82
2021/12/24 02:07:23;;;;;;;4.90;1.70;;;26.40;99.90;;;;;;5023260;28;20239;-82
2021/12/24 02:09:55;;;;;;;5.75;1.80;;;26.50;99.90;;;;;;5031783;28;20240;-83
2021/12/24 02:12:27;;;;;;;5.93;1.63;;;26.50;99.90;;;;;;5036347;28;20638;-83
2021/12/24 02:14:59;;;;;;;2.70;1.58;;;26.60;99.90;;;;;;5031441;28;20197;-82
2021/12/24 02:17:57;;;;;;;7.90;3.28;;;26.60;99.90;;;;;;5025818;28;20216;-82
2021/12/24 02:28:51;;;;;;;4.88;1.70;;;26.90;99.90;;;;;;5021945;28;20220;-82
2021/12/24 02:31:24;;;;;;;4.43;1.90;;;27.00;99.90;;;;;;5021590;28;20221;-83
2021/12/24 02:33:56;;;;;;;4.45;1.95;;;26.90;99.90;;;;;;5028084;28;20197;-82
2021/12/24 02:36:29;;;;;;;5.85;1.75;;;26.90;99.90;;;;;;5029184;28;20695;-82
2021/12/24 02:39:00;;;;;;;5.55;1.80;;;27.00;99.90;;;;;;5028005;28;20213;-83
2021/12/24 02:41:31;;;;;;;3.67;1.60;;;27.10;99.90;;;;;;5021041;28;20589;-82
2021/12/24 02:44:02;;;;;;;4.35;1.92;;;27.10;99.90;;;;;;5028563;28;20213;-86
2021/12/24 02:46:39;;;;;;;5.07;1.58;;;27.10;99.90;;;;;;5028201;28;20596;-85
2021/12/24 02:49:14;;;;;;;4.43;1.83;;;27.10;99.90;;;;;;5029630;28;20225;-82
2021/12/24 02:54:49;;;;;;;6.53;1.90;;;27.10;99.90;;;;;;4995655;28;20217;-82
2021/12/24 02:57:22;;;;;;;5.10;1.88;;;27.20;99.90;;;;;;4985821;28;20349;-85
2021/12/24 03:00:00;;;;;;;5.07;1.70;;;27.30;99.90;;;;;;5002635;28;20197;-83
2021/12/24 03:02:32;;;;;;;2.92;1.60;;;27.30;99.90;;;;;;5028087;28;20193;-83
2021/12/24 03:05:03;;;;;;;5.03;1.92;;;27.30;99.90;;;;;;5031606;28;20213;-83
2021/12/24 03:07:36;;;;;;;4.93;1.88;;;27.30;99.90;;;;;;5029675;28;20612;-84
2021/12/24 03:10:12;;;;;;;7.28;1.90;;;27.40;99.90;;;;;;5029731;28;20193;-83
2021/12/24 03:12:44;;;;;;;4.53;1.95;;;27.40;99.90;;;;;;5026903;28;20213;-81
2021/12/24 03:15:16;;;;;;;3.90;1.45;;;27.50;99.90;;;;;;5031063;28;20197;-83
2021/12/24 03:17:51;;;;;;;4.07;1.95;;;27.60;99.90;;;;;;5030274;28;20202;-83
2021/12/24 03:20:22;;;;;;;4.10;1.70;;;27.70;99.90;;;;;;5032488;28;20278;-82
2021/12/24 03:23:06;;;;;;;4.68;1.70;;;27.70;99.90;;;;;;5030769;28;20221;-83
2021/12/24 03:25:37;;;;;;;4.68;1.80;;;27.80;99.90;;;;;;5021400;28;20196;-84
2021/12/24 03:28:08;;;;;;;3.97;1.70;;;27.80;99.90;;;;;;5030224;28;20247;-82
2021/12/24 03:30:38;;;;;;;5.07;2.00;;;27.90;99.90;;;;;;5030803;28;20235;-81
2021/12/24 03:33:09;;;;;;;8.20;2.05;;;27.80;99.90;;;;;;5030515;28;20193;-82
2021/12/24 03:35:40;;;;;;;3.60;1.65;;;27.90;99.90;;;;;;5029572;28;20266;-83
2021/12/24 03:38:13;;;;;;;6.82;1.83;;;27.80;99.90;;;;;;5026669;28;20209;-82
2021/12/24 03:40:44;;;;;;;5.30;1.75;;;27.70;99.90;;;;;;5030025;28;20209;-82
2021/12/24 03:43:14;;;;;;;4.80;1.90;;;27.70;99.90;;;;;;5027651;28;20237;-83
2021/12/24 03:45:56;;;;;;;7.13;1.92;;;27.80;99.90;;;;;;5030384;28;20190;-81
2021/12/24 03:48:38;;;;;;;6.20;2.05;;;27.80;99.90;;;;;;5023718;28;20312;-82
2021/12/24 03:51:26;;;;;;;6.20;1.60;;;28.00;99.90;;;;;;5020009;28;20311;-85
2021/12/24 03:56:46;;;;;;;4.05;1.70;;;28.00;99.90;;;;;;5028009;28;20359;-86
2021/12/24 03:59:16;;;;;;;8.40;2.20;;;28.00;99.90;;;;;;5025947;28;20254;-83
2021/12/24 04:01:47;;;;;;;4.60;1.80;;;27.90;99.90;;;;;;5025889;28;20272;-88
2021/12/24 04:04:18;;;;;;;3.72;1.58;;;27.90;99.90;;;;;;5026715;28;20201;-86
2021/12/24 04:06:48;;;;;;;3.88;1.50;;;27.80;99.90;;;;;;5025773;28;20208;-83
2021/12/24 04:09:23;;;;;;;5.00;1.95;;;27.80;99.90;;;;;;5028634;28;20256;-84
2021/12/24 04:11:54;;;;;;;5.47;1.60;;;27.90;99.90;;;;;;5039061;28;20323;-84
2021/12/24 04:14:24;;;;;;;5.32;1.90;;;27.90;99.90;;;;;;5050048;28;20261;-84
2021/12/24 04:16:55;;;;;;;5.05;2.00;;;28.00;99.90;;;;;;5029814;28;20197;-84
2021/12/24 04:24:50;;;;;;;4.25;1.77;;;28.00;99.90;;;;;;5027612;28;20637;-84
2021/12/24 04:25:07;;;;;;;4.97;1.90;;;28.30;99.90;;;;;;5030405;28;20203;-86
2021/12/24 04:27:38;;;;;;;5.50;1.58;;;28.30;99.90;;;;;;5030330;28;20197;-82
2021/12/24 04:30:13;;;;;;;4.70;2.00;;;28.40;99.90;;;;;;5027045;28;20247;-86
2021/12/24 04:33:00;;;;;;;6.60;1.80;;;28.50;99.90;;;;;;5030368;28;20244;-86
2021/12/24 04:35:42;;;;;;;4.45;1.85;;;28.50;99.90;;;;;;5026818;28;20208;-84
2021/12/24 04:38:34;;;;;;;4.97;1.85;;;28.60;99.90;;;;;;5029356;28;20668;-83
2021/12/24 04:52:31;;;;;;;6.10;2.10;;;28.70;99.90;;;;;;5021103;28;20212;-83
2021/12/24 05:03:29;;;;;;;5.88;1.75;;;29.30;99.90;;;;;;5024105;28;20236;-84
2021/12/24 05:06:11;;;;;;;4.97;1.98;;;29.40;99.90;;;;;;5022915;28;20271;-84
2021/12/24 05:08:50;;;;;;;3.90;1.80;;;29.50;99.90;;;;;;5022595;28;20212;-84
2021/12/24 05:11:21;;;;;;;4.18;1.58;;;29.60;99.90;;;;;;5022929;28;20201;-84
2021/12/24 05:13:54;;;;;;;4.28;1.73;;;29.60;99.90;;;;;;5023080;28;20243;-84
2021/12/24 05:16:36;;;;;;;6.20;2.03;;;29.70;99.90;;;;;;5024293;28;20189;-85
2021/12/24 05:21:51;;;;;;;5.47;1.80;;;29.90;99.90;;;;;;4983865;28;20217;-89
2021/12/24 05:24:23;;;;;;;4.43;1.80;;;29.90;99.90;;;;;;5025138;28;20202;-87
2021/12/24 05:26:54;;;;;;;4.10;1.70;;;30.00;99.90;;;;;;5030702;28;20259;-87
2021/12/24 05:29:28;;;;;;;5.45;1.60;;;30.20;99.90;;;;;;5030868;28;20255;-88
2021/12/24 05:32:00;;;;;;;5.30;1.88;;;30.20;99.90;;;;;;5031021;28;20819;-86
2021/12/24 05:34:32;;;;;;;5.80;1.75;;;30.30;99.90;;;;;;5030880;28;20530;-86
2021/12/24 05:37:03;;;;;;;4.68;1.88;;;30.30;99.90;;;;;;5031290;28;20197;-87
2021/12/24 05:39:34;;;;;;;5.38;1.70;;;30.30;99.90;;;;;;5012796;28;20255;-87
2021/12/24 05:42:05;;;;;;;6.15;2.10;;;30.60;99.90;;;;;;5025095;28;20598;-86
2021/12/24 05:44:38;;;;;;;6.47;2.40;;;30.70;99.90;;;;;;5030243;28;20200;-86
2021/12/24 05:47:10;;;;;;;6.13;1.70;;;30.80;99.90;;;;;;5030075;28;20233;-83
2021/12/24 05:49:41;;;;;;;4.88;1.80;;;30.90;99.90;;;;;;5031613;28;20213;-83
2021/12/24 05:52:12;;;;;;;5.30;2.17;;;31.20;99.90;;;;;;5031443;28;20197;-82
2021/12/24 05:54:43;;;;;;;8.10;2.58;;;30.90;99.90;;;;;;5031896;28;20209;-83
2021/12/24 05:57:14;;;;;;;6.18;2.35;;;30.80;99.90;;;;;;5025378;28;20723;-83
2021/12/24 05:59:46;;;;;;;7.47;2.53;;;31.00;99.90;;;;;;5027991;28;20217;-83
2021/12/24 06:02:17;;;;;;;5.78;2.60;;;31.10;99.90;;;;;;5026491;28;20213;-83
2021/12/24 06:04:48;;;;;;;5.20;2.60;;;30.90;99.90;;;;;;5025721;28;20607;-82
2021/12/24 06:07:18;;;;;;;7.88;2.70;;;31.00;99.90;;;;;;5028033;28;20189;-82
2021/12/24 06:09:49;;;;;;;6.75;3.05;;;31.20;99.90;;;;;;5025504;28;20220;-82
2021/12/24 06:12:20;;;;;;;8.05;2.40;;;31.20;99.90;;;;;;5025621;28;20205;-83
2021/12/24 06:14:54;;;;;;;7.60;2.50;;;31.60;99.90;;;;;;5026353;28;20197;-83
2021/12/24 06:17:25;;;;;;;7.20;2.50;;;31.80;99.90;;;;;;5026974;28;20615;-83
2021/12/24 06:19:56;;;;;;;6.50;2.10;;;31.90;99.90;;;;;;5026238;28;20200;-82
2021/12/24 06:22:26;;;;;;;6.13;2.03;;;31.60;99.90;;;;;;5025063;28;20209;-82
2021/12/24 06:24:57;;;;;;;6.80;2.33;;;31.40;99.90;;;;;;5025917;28;20570;-83
2021/12/24 06:27:28;;;;;;;7.88;2.20;;;31.50;99.90;;;;;;5026771;28;20193;-83
2021/12/24 06:30:01;;;;;;;5.53;2.15;;;31.60;99.90;;;;;;5026099;28;20201;-83
2021/12/24 06:32:31;;;;;;;6.78;2.35;;;32.00;99.90;;;;;;5026911;28;20197;-85
2021/12/24 06:35:02;;;;;;;9.07;3.30;;;32.20;99.90;;;;;;5026967;28;20198;-85
2021/12/24 06:37:33;;;;;;;7.05;2.20;;;32.20;99.90;;;;;;5025096;28;20203;-81
2021/12/24 06:40:04;;;;;;;7.05;2.45;;;32.50;99.90;;;;;;5026381;28;20255;-81
2021/12/24 06:42:34;;;;;;;5.70;2.60;;;32.50;99.90;;;;;;5025348;28;20593;-81
2021/12/24 06:45:07;;;;;;;5.97;2.22;;;32.50;99.90;;;;;;5025830;28;20714;-81
2021/12/24 06:47:38;;;;;;;6.03;2.20;;;32.60;99.90;;;;;;5025020;28;20375;-81
2021/12/24 06:50:09;;;;;;;8.77;2.70;;;33.00;99.90;;;;;;5025985;28;20189;-83
2021/12/24 06:52:40;;;;;;;8.77;2.50;;;33.20;99.90;;;;;;5025610;28;20201;-84
2021/12/24 06:55:11;;;;;;;8.10;2.20;;;33.30;99.90;;;;;;5025182;28;20198;-81
2021/12/24 06:57:42;;;;;;;7.32;2.58;;;33.50;99.90;;;;;;5025065;28;20685;-82
2021/12/24 07:00:18;;;;;;;7.32;2.78;;;33.70;99.90;;;;;;5024456;28;20738;-81
2021/12/24 07:02:49;;;;;;;7.13;2.63;;;34.00;99.90;;;;;;5024360;28;20753;-82
2021/12/24 07:05:20;;;;;;;5.05;2.10;;;33.90;99.90;;;;;;5024385;28;20202;-81
2021/12/24 07:07:51;;;;;;;7.47;2.30;;;34.10;99.90;;;;;;5025963;28;20193;-81
2021/12/24 07:10:22;;;;;;;7.88;2.67;;;33.50;99.90;;;;;;5025802;28;20208;-84
2021/12/24 07:12:53;;;;;;;7.22;2.28;;;32.80;99.90;;;;;;5026916;28;20209;-87
2021/12/24 07:15:25;;;;;;;7.70;2.30;;;32.70;99.90;;;;;;5030194;28;20730;-85
2021/12/24 07:17:56;;;;;;;5.78;1.85;;;32.50;99.90;;;;;;5029682;28;20251;-85
2021/12/24 07:20:27;;;;;;;5.65;2.05;;;32.50;99.90;;;;;;5027277;28;20541;-85
2021/12/24 07:22:58;;;;;;;6.60;2.20;;;32.30;99.90;;;;;;5031026;28;20213;-86
2021/12/24 07:25:29;;;;;;;8.93;2.17;;;31.90;99.90;;;;;;5031262;28;20201;-85
2021/12/24 07:28:00;;;;;;;5.32;2.17;;;31.30;99.90;;;;;;5031295;28;20342;-86
2021/12/24 07:30:34;;;;;;;7.85;2.60;;;30.80;99.90;;;;;;5031210;28;20288;-84
2021/12/24 07:33:04;;;;;;;6.70;2.30;;;30.30;99.90;;;;;;5031016;28;20205;-86
2021/12/24 07:35:35;;;;;;;5.40;2.10;;;29.80;99.90;;;;;;5039382;28;20222;-90
2021/12/24 07:38:06;;;;;;;8.70;2.55;;;29.50;99.90;;;;;;5014055;28;20209;-91
2021/12/24 07:40:38;;;;;;;7.75;2.28;;;29.20;99.90;;;;;;5016445;28;20201;-86
2021/12/24 07:43:08;;;;;;;8.80;2.75;;;29.10;99.90;;;;;;5023510;28;20312;-83
2021/12/24 07:45:43;;;;;;;10.48;2.50;;;28.80;99.90;;;;;;5022173;28;20197;-83
2021/12/24 07:48:15;;;;;;;6.40;2.53;;;28.50;99.90;;;;;;5030613;28;20196;-86
2021/12/24 07:53:34;;;;;;;7.18;2.70;;;28.00;99.90;;;;;;5038871;28;20331;-87
2021/12/24 07:56:05;;;;;;;6.25;2.38;;;27.90;99.90;;;;;;5031880;28;20193;-88
2021/12/24 07:58:36;;;;;;;7.32;2.50;;;27.70;99.90;;;;;;5011986;28;20190;-88
2021/12/24 08:01:09;;;;;;;6.95;2.30;;;27.60;99.90;;;;;;5011696;28;20591;-84
2021/12/24 08:03:40;;;;;;;7.80;2.55;;;27.60;99.90;;;;;;5010835;28;20567;-85
2021/12/24 08:06:10;;;;;;;8.55;2.78;;;27.50;99.90;;;;;;5010653;28;20197;-85
2021/12/24 08:08:41;;;;;;;7.10;2.45;;;27.50;99.90;;;;;;5011219;28;20328;-88
2021/12/24 08:11:12;;;;;;;7.32;2.80;;;27.40;99.90;;;;;;5011766;28;20660;-87
2021/12/24 08:13:42;;;;;;;6.82;2.38;;;27.30;99.90;;;;;;5010849;28;20197;-87
2021/12/24 08:16:15;;;;;;;8.43;2.50;;;27.30;99.90;;;;;;5022794;28;20738;-87
2021/12/24 08:18:46;;;;;;;6.68;2.78;;;27.30;99.90;;;;;;5031796;28;20204;-86
2021/12/24 08:21:17;;;;;;;7.03;3.40;;;27.20;99.90;;;;;;5028760;28;20240;-87
2021/12/24 08:23:48;;;;;;;10.90;3.85;;;27.20;99.90;;;;;;5027016;28;20628;-86
2021/12/24 08:26:21;;;;;;;7.88;2.80;;;27.20;99.90;;;;;;5029861;28;20181;-86
2021/12/24 08:28:52;;;;;;;9.80;3.10;;;27.10;99.90;;;;;;5024669;28;20232;-85
2021/12/24 08:31:25;;;;;;;10.88;3.10;;;27.10;99.90;;;;;;5029977;28;20633;-86
2021/12/24 08:33:56;;;;;;;9.88;2.92;;;27.00;99.90;;;;;;5030012;28;20205;-87
2021/12/24 08:36:27;;;;;;;7.22;2.90;;;27.00;99.90;;;;;;5030323;28;20602;-88
2021/12/24 08:38:57;;;;;;;8.80;2.80;;;27.00;99.90;;;;;;5025805;28;20232;-86
2021/12/24 08:41:30;;;;;;;8.88;3.13;;;26.90;99.90;;;;;;5009791;28;20250;-87
2021/12/24 08:44:01;;;;;;;8.48;3.03;;;26.80;99.90;;;;;;4987815;28;20738;-87
2021/12/24 08:46:34;;;;;;;10.35;3.03;;;26.80;99.90;;;;;;5008727;28;20236;-88
2021/12/24 08:49:04;;;;;;;6.20;2.80;;;26.80;99.90;;;;;;5013528;28;20226;-88
2021/12/24 08:51:35;;;;;;;8.55;3.05;;;26.80;99.90;;;;;;5009397;28;20248;-88
2021/12/24 08:54:07;;;;;;;10.45;3.30;;;26.70;99.90;;;;;;5011079;28;20210;-87
2021/12/24 08:56:38;;;;;;;10.63;3.22;;;26.60;99.90;;;;;;5014914;28;20220;-86
2021/12/24 08:59:09;;;;;;;8.55;3.05;;;26.60;99.90;;;;;;5011604;28;20221;-87
2021/12/24 09:01:42;;;;;;;7.25;2.95;;;26.60;99.90;;;;;;5013203;28;20221;-85
2021/12/24 09:04:15;;;;;;;11.98;3.38;;;26.60;99.90;;;;;;5009884;28;20209;-87
2021/12/24 09:06:45;;;;;;;10.75;3.38;;;26.50;99.90;;;;;;5010898;28;20738;-88
2021/12/24 09:09:17;;;;;;;7.22;3.10;;;26.40;99.90;;;;;;5012599;28;20239;-89
2021/12/24 09:11:49;;;;;;;10.63;3.03;;;26.30;99.90;;;;;;5011630;28;20331;-88
2021/12/24 09:14:20;;;;;;;10.05;3.13;;;26.30;99.90;;;;;;5012305;28;20225;-88
2021/12/24 09:16:54;;;;;;;9.00;3.47;;;26.30;99.90;;;;;;5017408;28;20232;-88
2021/12/24 09:19:28;;;;;;;12.57;3.72;;;26.30;99.90;;;;;;5033458;28;20220;-88
2021/12/24 09:22:00;;;;;;;12.25;4.32;;;26.20;99.90;;;;;;5044387;28;20207;-89
2021/12/24 09:24:32;;;;;;;13.55;5.97;;;26.20;99.90;;;;;;5028882;28;20537;-87
2021/12/24 09:27:03;;;;;;;9.30;4.05;;;26.20;99.90;;;;;;5035077;28;20197;-88
2021/12/24 09:29:33;;;;;;;11.38;5.88;;;26.10;99.90;;;;;;5022252;28;20658;-90
2021/12/24 09:32:08;;;;;;;11.23;4.15;;;26.10;99.90;;;;;;5029617;28;20211;-89
2021/12/24 09:34:41;;;;;;;11.43;4.25;;;26.00;99.90;;;;;;5025208;28;20216;-90
2021/12/24 09:37:13;;;;;;;10.32;3.70;;;26.00;99.90;;;;;;5040958;28;20236;-88
2021/12/24 09:39:45;;;;;;;8.27;3.60;;;26.00;99.90;;;;;;5040930;28;20193;-89
2021/12/24 09:42:19;;;;;;;9.35;3.65;;;26.00;99.90;;;;;;5029726;28;20197;-89
2021/12/24 09:44:51;;;;;;;10.65;3.50;;;25.90;99.90;;;;;;5022336;28;20190;-90
2021/12/24 09:47:26;;;;;;;9.02;3.30;;;25.90;99.90;;;;;;5035194;28;20232;-89
2021/12/24 09:49:58;;;;;;;11.02;3.58;;;25.90;99.90;;;;;;5032561;28;20197;-90
2021/12/24 09:52:31;;;;;;;6.80;3.35;;;25.90;99.90;;;;;;5038018;28;20216;-90
2021/12/24 09:55:10;;;;;;;10.80;4.13;;;25.80;99.90;;;;;;5063799;28;20223;-87
2021/12/24 09:57:41;;;;;;;8.43;4.05;;;25.80;99.90;;;;;;5029374;28;20278;-88
2021/12/24 10:00:15;;;;;;;6.95;3.72;;;25.80;99.90;;;;;;5039970;28;20613;-88
2021/12/24 10:02:53;;;;;;;11.90;3.90;;;25.80;99.90;;;;;;5036975;28;20267;-88
2021/12/24 10:05:34;;;;;;;10.68;3.47;;;25.70;99.90;;;;;;5040835;28;20197;-87
2021/12/24 10:08:10;;;;;;;8.70;3.25;;;25.70;99.90;;;;;;5043577;28;20221;-88
2021/12/24 10:10:44;;;;;;;10.65;3.83;;;25.70;99.90;;;;;;5034398;28;20251;-86
2021/12/24 10:13:38;;;;;;;9.57;3.10;;;25.70;99.90;;;;;;5040506;28;20217;-86
2021/12/24 10:16:12;;;;;;;9.90;3.10;;;25.60;99.90;;;;;;5040762;28;20189;-86
2021/12/24 10:18:47;;;;;;;8.90;3.00;;;25.60;99.90;;;;;;5041074;28;20216;-86
2021/12/24 10:21:22;;;;;;;11.90;3.38;;;25.50;99.90;;;;;;5039005;28;20227;-86
2021/12/24 10:23:55;;;;;;;7.40;2.88;;;25.50;99.90;;;;;;5038801;28;20224;-86
2021/12/24 10:26:29;;;;;;;11.00;3.30;;;25.50;99.90;;;;;;5050465;28;20288;-86
2021/12/24 10:29:04;;;;;;;9.57;2.75;;;25.50;99.90;;;;;;5039193;28;20224;-86
2021/12/24 10:31:37;;;;;;;9.75;2.65;;;25.40;99.90;;;;;;5031322;28;20221;-86
2021/12/24 10:34:25;;;;;;;11.77;3.58;;;25.50;99.90;;;;;;5019349;28;20234;-86
2021/12/24 10:37:04;;;;;;;9.70;3.05;;;25.40;99.90;;;;;;5017962;28;20214;-86
2021/12/24 10:39:38;;;;;;;10.60;3.20;;;25.40;99.90;;;;;;5022314;28;20213;-87
2021/12/24 10:42:16;;;;;;;9.35;3.00;;;25.40;99.90;;;;;;5027263;28;20252;-85
2021/12/24 10:44:50;;;;;;;8.00;2.70;;;25.40;99.90;;;;;;5026847;28;20226;-86
2021/12/24 10:47:25;;;;;;;9.57;3.03;;;25.40;99.90;;;;;;5016987;28;20240;-86
2021/12/24 10:50:07;;;;;;;8.77;2.90;;;25.30;99.90;;;;;;5018082;28;20228;-86
2021/12/24 10:55:36;;;;;;;13.63;5.00;;;25.30;99.90;;;;;;5038696;28;20196;-79
2021/12/24 10:58:08;;;;;;;12.45;3.55;;;25.30;99.90;;;;;;5022517;28;20225;-80
2021/12/24 11:00:42;;;;;;;10.43;3.22;;;25.30;99.90;;;;;;5024599;28;20217;-80
2021/12/24 11:03:21;;;;;;;10.98;4.25;;;25.20;99.90;;;;;;5029055;28;20774;-80
2021/12/24 11:05:54;;;;;;;12.48;3.70;;;25.20;99.90;;;;;;5023170;28;20256;-80
2021/12/24 11:08:26;;;;;;;11.95;3.80;;;25.20;99.90;;;;;;5015924;28;20214;-80
2021/12/24 11:10:59;;;;;;;13.60;5.15;;;25.20;99.90;;;;;;5013329;28;20568;-80
2021/12/24 11:13:38;;;;;;;13.38;3.95;;;25.20;99.90;;;;;;5023678;28;20224;-80
2021/12/24 11:16:10;;;;;;;12.25;3.72;;;25.10;99.90;;;;;;5016099;28;20221;-80
2021/12/24 11:18:45;;;;;;;10.90;3.28;;;25.20;99.90;;;;;;5011689;28;20306;-81
2021/12/24 11:21:25;;;;;;;11.93;3.30;;;25.10;99.90;;;;;;5012316;28;20764;-80
2021/12/24 11:23:56;;;;;;;11.38;3.38;;;25.10;99.90;;;;;;5014729;28;22664;-80
2021/12/24 11:26:28;;;;;;;9.45;3.05;;;25.10;99.90;;;;;;5011522;28;20217;-80
2021/12/24 11:28:59;;;;;;;9.48;2.92;;;25.10;99.90;;;;;;5011700;28;21835;-80
2021/12/24 11:31:32;;;;;;;10.85;3.35;;;25.00;99.90;;;;;;5012311;28;20283;-79
2021/12/24 11:34:03;;;;;;;8.80;3.13;;;25.00;99.90;;;;;;5016158;28;20221;-79
2021/12/24 11:36:36;;;;;;;11.32;3.42;;;25.00;99.90;;;;;;5014932;28;20256;-80
2021/12/24 11:39:09;;;;;;;13.55;3.28;;;24.90;99.90;;;;;;5017742;28;20224;-81
2021/12/24 11:41:40;;;;;;;12.63;3.25;;;24.90;99.90;;;;;;5011918;28;20222;-78
2021/12/24 11:44:13;;;;;;;10.43;3.05;;;24.90;99.90;;;;;;5013451;28;20237;-81
2021/12/24 11:46:44;;;;;;;13.13;3.17;;;24.90;99.90;;;;;;5014316;28;20239;-80
2021/12/24 11:49:14;;;;;;;14.85;4.07;;;24.90;99.90;;;;;;5018728;28;20221;-79
2021/12/24 11:51:49;;;;;;;16.00;3.80;;;24.90;99.90;;;;;;5017669;28;20736;-81
2021/12/24 11:54:21;;;;;;;14.38;3.38;;;24.90;99.90;;;;;;5014333;28;20225;-81
2021/12/24 11:56:55;;;;;;;14.07;3.40;;;24.90;99.90;;;;;;5015671;28;20284;-82
2021/12/24 11:59:37;;;;;;;11.30;3.60;;;24.90;99.90;;;;;;5011542;28;20726;-81
2021/12/24 12:02:08;;;;;;;15.10;3.40;;;24.90;99.90;;;;;;5013639;28;20225;-81
2021/12/24 12:04:39;;;;;;;11.57;3.30;;;24.90;99.90;;;;;;5018370;28;20231;-80
2021/12/24 12:07:20;;;;;;;14.38;3.58;;;24.90;99.90;;;;;;5028527;28;20225;-81
2021/12/24 12:09:51;;;;;;;15.43;3.70;;;24.90;99.90;;;;;;5030200;28;20216;-81
2021/12/24 12:12:36;;;;;;;12.75;3.83;;;24.90;99.90;;;;;;5032692;28;20197;-81
2021/12/24 12:15:25;;;;;;;11.32;3.58;;;24.90;99.90;;;;;;5015246;28;20680;-81
2021/12/24 12:17:58;;;;;;;9.80;3.25;;;24.80;99.90;;;;;;5014082;28;20209;-81
2021/12/24 12:20:43;;;;;;;10.70;3.15;;;24.80;99.90;;;;;;5016402;28;20260;-81
2021/12/24 12:23:54;;;;;;;11.85;3.38;;;24.80;99.90;;;;;;5016547;28;20267;-81
2021/12/24 12:26:38;;;;;;;10.63;3.55;;;24.90;99.90;;;;;;5017306;28;20193;-80
2021/12/24 12:29:45;;;;;;;11.15;3.67;;;24.80;99.90;;;;;;5016861;28;20205;-80
2021/12/24 12:32:40;;;;;;;14.85;3.75;;;24.80;99.90;;;;;;4980478;28;21040;-81
2021/12/24 12:35:11;;;;;;;13.98;3.83;;;24.80;99.90;;;;;;5015327;28;20213;-81
2021/12/24 12:37:51;;;;;;;12.27;3.60;;;24.80;99.90;;;;;;5014248;28;20225;-81
2021/12/24 12:40:37;;;;;;;9.95;3.38;;;24.80;99.90;;;;;;5015771;28;20217;-80
2021/12/24 12:43:14;;;;;;;11.23;3.05;;;24.80;99.90;;;;;;5010395;28;20213;-80
2021/12/24 12:46:01;;;;;;;10.73;3.25;;;24.80;99.90;;;;;;5012912;28;20205;-80
2021/12/24 12:48:50;;;;;;;11.18;3.00;;;24.70;99.90;;;;;;5010894;28;20211;-80
2021/12/24 12:51:24;;;;;;;14.07;3.50;;;24.70;99.90;;;;;;5011223;28;20208;-80
2021/12/24 12:54:00;;;;;;;15.05;4.22;;;24.70;99.90;;;;;;5011579;28;20221;-80
2021/12/24 12:56:32;;;;;;;11.70;3.33;;;24.70;99.90;;;;;;5012308;28;20198;-80
2021/12/24 12:59:11;;;;;;;11.27;3.70;;;24.70;99.90;;;;;;5011699;28;20205;-80
2021/12/24 13:01:53;;;;;;;14.43;3.33;;;24.70;99.90;;;;;;5014533;28;20895;-80
2021/12/24 13:04:25;;;;;;;11.07;3.13;;;24.70;99.90;;;;;;5011804;28;20222;-81
2021/12/24 13:07:01;;;;;;;10.13;3.38;;;24.70;99.90;;;;;;5016043;28;20616;-80
2021/12/24 13:09:35;;;;;;;9.80;3.60;;;24.70;99.90;;;;;;5014562;28;20335;-80
2021/12/24 13:12:09;;;;;;;9.57;3.00;;;24.70;99.90;;;;;;5012585;28;20595;-80
2021/12/24 13:14:40;;;;;;;12.82;3.33;;;24.70;99.90;;;;;;5012974;28;20209;-80
2021/12/24 13:17:21;;;;;;;11.63;3.40;;;24.70;99.90;;;;;;5012851;28;20213;-80
2021/12/24 13:20:16;;;;;;;14.57;3.70;;;24.70;99.90;;;;;;5010840;28;20894;-78
2021/12/24 13:22:45;;;;;;;12.93;3.50;;;24.70;99.90;;;;;;5022111;28;20198;-80
2021/12/24 13:25:17;;;;;;;10.75;2.88;;;24.70;99.90;;;;;;5032661;28;20275;-81
2021/12/24 13:27:52;;;;;;;9.98;3.20;;;24.60;99.90;;;;;;5032965;28;20276;-81
2021/12/24 13:30:24;;;;;;;13.23;3.35;;;24.70;99.90;;;;;;5024665;28;20256;-81
2021/12/24 13:32:56;;;;;;;10.68;3.15;;;24.60;99.90;;;;;;5011564;28;20205;-80
2021/12/24 13:35:29;;;;;;;11.02;3.30;;;24.60;99.90;;;;;;5011635;28;20315;-80
2021/12/24 13:38:00;;;;;;;11.88;3.15;;;24.60;99.90;;;;;;5008668;28;20205;-80
2021/12/24 13:40:34;;;;;;;11.43;3.28;;;24.60;99.90;;;;;;5010571;28;20654;-81
2021/12/24 13:43:12;;;;;;;14.98;3.75;;;24.60;99.90;;;;;;5014493;28;20617;-81
2021/12/24 13:45:44;;;;;;;11.27;3.67;;;24.60;99.90;;;;;;5014727;28;20205;-81
2021/12/24 13:48:22;;;;;;;9.80;3.25;;;24.50;99.90;;;;;;5012087;28;20198;-81
2021/12/24 13:56:30;;;;;;;11.35;3.38;;;24.50;99.90;;;;;;5012666;28;20203;-80
2021/12/24 13:59:03;;;;;;;10.77;3.60;;;24.50;99.90;;;;;;5010057;28;20202;-80
2021/12/24 14:01:35;;;;;;;10.57;3.47;;;24.50;99.90;;;;;;5010998;28;20193;-81
2021/12/24 14:04:08;;;;;;;10.60;3.28;;;24.40;99.90;;;;;;5013251;28;20891;-80
2021/12/24 14:06:41;;;;;;;8.57;3.17;;;24.40;99.90;;;;;;5009749;28;20202;-80
2021/12/24 14:09:12;;;;;;;10.77;3.40;;;24.40;99.90;;;;;;5010611;28;20202;-80
2021/12/24 14:11:44;;;;;;;10.82;3.40;;;24.30;99.90;;;;;;5009725;28;20202;-81
2021/12/24 14:14:22;;;;;;;12.18;3.75;;;24.30;99.90;;;;;;5008903;28;22080;-81
2021/12/24 14:17:08;;;;;;;11.18;3.20;;;24.30;99.90;;;;;;5008207;28;20411;-80
2021/12/24 14:19:49;;;;;;;12.20;3.65;;;24.30;99.90;;;;;;5009366;28;20227;-80
2021/12/24 14:22:22;;;;;;;11.40;2.88;;;24.30;99.90;;;;;;5008564;28;20224;-81
2021/12/24 14:24:57;;;;;;;11.48;3.63;;;24.30;99.90;;;;;;5013052;28;20233;-81
2021/12/24 14:27:29;;;;;;;12.57;3.47;;;24.30;99.90;;;;;;5010888;28;20201;-80
2021/12/24 14:30:06;;;;;;;11.38;3.22;;;24.30;99.90;;;;;;5010016;28;20299;-80
2021/12/24 14:32:38;;;;;;;13.75;3.42;;;24.30;99.90;;;;;;5008605;28;20262;-81
2021/12/24 14:35:19;;;;;;;12.35;3.67;;;24.30;99.90;;;;;;5009501;28;20320;-81
2021/12/24 14:37:58;;;;;;;11.05;3.38;;;24.30;99.90;;;;;;5008294;28;20263;-80
2021/12/24 14:40:30;;;;;;;10.38;3.47;;;24.20;99.90;;;;;;5009123;28;20258;-81
2021/12/24 14:43:01;;;;;;;12.40;3.72;;;24.20;99.90;;;;;;5014257;28;20194;-80